createdAt,value
2023-04-08T00:03:19.991Z,6.98
2023-04-08T00:06:46.269Z,6.98
2023-04-08T00:10:12.720Z,6.98
2023-04-08T00:13:39.230Z,6.98
2023-04-08T00:17:05.721Z,7.01
2023-04-08T00:20:32.144Z,7.04
2023-04-08T00:23:58.749Z,7.04
2023-04-08T00:27:25.284Z,7.04
2023-04-08T00:30:51.750Z,7.04
2023-04-08T00:34:18.202Z,7.07
2023-04-08T00:37:44.713Z,7.11
2023-04-08T00:41:11.255Z,7.14
2023-04-08T00:44:37.700Z,7.16
2023-04-08T00:48:04.332Z,7.14
2023-04-08T00:51:30.726Z,7.07
2023-04-08T00:54:57.000Z,7.06
2023-04-08T00:58:23.299Z,7.07
2023-04-08T01:01:49.580Z,7.1
2023-04-08T01:05:15.520Z,7.11
2023-04-08T01:08:41.554Z,7.09
2023-04-08T01:12:07.573Z,7.11
2023-04-08T01:15:33.573Z,7.1
2023-04-08T01:18:59.451Z,7.07
2023-04-08T01:22:25.371Z,7.02
2023-04-08T01:25:51.293Z,6.98
2023-04-08T01:29:17.035Z,6.91
2023-04-08T01:32:42.930Z,6.85
2023-04-08T01:36:08.621Z,6.76
2023-04-08T01:39:34.447Z,6.59
2023-04-08T01:43:00.214Z,6.54
2023-04-08T01:46:26.015Z,6.5
2023-04-08T01:49:51.779Z,6.46
2023-04-08T01:53:17.492Z,6.41
2023-04-08T01:56:43.251Z,6.38
2023-04-08T02:00:09.076Z,6.37
2023-04-08T02:03:34.961Z,6.35
2023-04-08T02:07:00.655Z,6.37
2023-04-08T02:10:26.365Z,6.39
2023-04-08T02:13:52.149Z,6.43
2023-04-08T02:17:17.850Z,6.42
2023-04-08T02:20:43.547Z,6.39
2023-04-08T02:24:09.350Z,6.35
2023-04-08T02:27:35.079Z,6.35
2023-04-08T02:31:00.853Z,6.32
2023-04-08T02:34:26.534Z,6.31
2023-04-08T02:37:52.215Z,6.32
2023-04-08T02:41:17.909Z,6.35
2023-04-08T02:44:43.610Z,6.37
2023-04-08T02:48:09.217Z,6.38
2023-04-08T02:51:34.965Z,6.37
2023-04-08T02:55:00.661Z,6.42
2023-04-08T02:58:26.285Z,6.44
2023-04-08T03:01:52.041Z,6.46
2023-04-08T03:05:17.579Z,6.5
2023-04-08T03:08:43.233Z,6.49
2023-04-08T03:12:08.849Z,6.49
2023-04-08T03:15:34.516Z,6.49
2023-04-08T03:19:00.141Z,6.48
2023-04-08T03:22:25.764Z,6.48
2023-04-08T03:25:51.425Z,6.45
2023-04-08T03:29:17.001Z,6.46
2023-04-08T03:32:42.581Z,6.48
2023-04-08T03:36:08.100Z,6.45
2023-04-08T03:39:33.610Z,6.44
2023-04-08T03:42:59.223Z,6.48
2023-04-08T03:46:24.773Z,6.54
2023-04-08T03:49:50.290Z,6.59
2023-04-08T03:53:15.808Z,6.59
2023-04-08T03:56:41.332Z,6.56
2023-04-08T04:00:06.898Z,6.54
2023-04-08T04:03:32.505Z,6.54
2023-04-08T04:06:58.006Z,6.59
2023-04-08T04:10:23.658Z,6.61
2023-04-08T04:13:49.414Z,6.59
2023-04-08T04:17:15.023Z,6.58
2023-04-08T04:20:40.626Z,6.62
2023-04-08T04:24:06.238Z,6.63
2023-04-08T04:27:31.860Z,6.67
2023-04-08T04:30:57.475Z,6.69
2023-04-08T04:34:22.988Z,6.71
2023-04-08T04:37:48.517Z,6.76
2023-04-08T04:41:14.057Z,6.78
2023-04-08T04:44:39.605Z,6.76
2023-04-08T04:48:05.190Z,6.79
2023-04-08T04:51:30.684Z,6.8
2023-04-08T04:54:56.149Z,6.77
2023-04-08T04:58:21.654Z,6.71
2023-04-08T05:01:47.285Z,6.71
2023-04-08T05:05:12.754Z,6.63
2023-04-08T05:08:38.113Z,6.56
2023-04-08T05:12:03.696Z,6.57
2023-04-08T05:15:29.233Z,6.56
2023-04-08T05:18:54.838Z,6.51
2023-04-08T05:22:20.361Z,6.44
2023-04-08T05:25:46.000Z,6.39
2023-04-08T05:29:11.506Z,6.38
2023-04-08T05:32:37.088Z,6.4
2023-04-08T05:36:02.776Z,6.45
2023-04-08T05:39:28.347Z,6.47
2023-04-08T05:42:53.918Z,6.48
2023-04-08T05:46:19.553Z,6.46
2023-04-08T05:49:45.129Z,6.51
2023-04-08T05:53:10.729Z,6.53
2023-04-08T05:56:36.310Z,6.52
2023-04-08T06:00:01.947Z,6.52
2023-04-08T06:03:27.769Z,6.54
2023-04-08T06:06:53.200Z,6.52
2023-04-08T06:10:18.834Z,6.56
2023-04-08T06:13:44.396Z,6.58
2023-04-08T06:17:09.907Z,6.61
2023-04-08T06:20:35.407Z,6.6
2023-04-08T06:24:00.985Z,6.6
2023-04-08T06:27:26.501Z,6.64
2023-04-08T06:30:51.840Z,6.66
2023-04-08T06:34:17.288Z,6.69
2023-04-08T06:37:42.665Z,6.69
2023-04-08T06:41:08.318Z,6.7
2023-04-08T06:44:33.911Z,6.68
2023-04-08T06:47:59.602Z,6.66
2023-04-08T06:51:25.098Z,6.69
2023-04-08T06:54:50.682Z,6.74
2023-04-08T06:58:16.270Z,6.74
2023-04-08T07:01:41.821Z,6.76
2023-04-08T07:05:08.766Z,6.79
2023-04-08T07:08:34.442Z,6.78
2023-04-08T07:11:59.854Z,6.76
2023-04-08T07:15:25.313Z,6.7
2023-04-08T07:18:50.888Z,6.68
2023-04-08T07:22:16.288Z,6.69
2023-04-08T07:25:41.858Z,6.69
2023-04-08T07:29:07.377Z,6.74
2023-04-08T07:32:32.980Z,6.78
2023-04-08T07:35:58.225Z,6.85
2023-04-08T07:39:23.677Z,6.95
2023-04-08T07:42:49.100Z,7.03
2023-04-08T07:46:14.789Z,7.11
2023-04-08T07:49:40.265Z,7.12
2023-04-08T07:53:06.957Z,7.14
2023-04-08T07:56:31.127Z,7.18
2023-04-08T07:59:56.521Z,7.3
2023-04-08T08:03:22.250Z,7.36
2023-04-08T08:06:47.551Z,7.36
2023-04-08T08:10:12.866Z,7.33
2023-04-08T08:13:38.220Z,7.31
2023-04-08T08:17:03.640Z,7.29
2023-04-08T08:20:28.969Z,7.27
2023-04-08T08:23:54.266Z,7.25
2023-04-08T08:27:19.591Z,7.21
2023-04-08T08:30:44.928Z,7.22
2023-04-08T08:34:10.274Z,7.29
2023-04-08T08:37:35.588Z,7.36
2023-04-08T08:41:00.952Z,7.31
2023-04-08T08:44:26.288Z,7.31
2023-04-08T08:47:51.681Z,7.37
2023-04-08T08:51:16.929Z,7.47
2023-04-08T08:54:42.230Z,7.47
2023-04-08T08:58:07.567Z,7.44
2023-04-08T09:01:33.181Z,7.42
2023-04-08T09:04:58.352Z,7.37
2023-04-08T09:08:23.413Z,7.39
2023-04-08T09:11:48.633Z,7.45
2023-04-08T09:15:13.947Z,7.39
2023-04-08T09:18:39.193Z,7.31
2023-04-08T09:22:04.544Z,7.28
2023-04-08T09:25:30.051Z,7.29
2023-04-08T09:28:55.314Z,7.32
2023-04-08T09:32:20.631Z,7.37
2023-04-08T09:35:46.010Z,7.45
2023-04-08T09:39:11.321Z,7.5
2023-04-08T09:42:36.636Z,7.6
2023-04-08T09:46:01.957Z,7.67
2023-04-08T09:49:27.289Z,7.67
2023-04-08T09:52:52.607Z,7.69
2023-04-08T09:56:18.021Z,7.76
2023-04-08T09:59:43.425Z,7.81
2023-04-08T10:03:08.848Z,7.88
2023-04-08T10:06:34.112Z,7.95
2023-04-08T10:09:59.447Z,7.97
2023-04-08T10:13:24.892Z,8.07
2023-04-08T10:16:50.435Z,8.06
2023-04-08T10:20:15.771Z,8.07
2023-04-08T10:23:41.181Z,8.1
2023-04-08T10:27:06.503Z,8.05
2023-04-08T10:30:31.877Z,7.98
2023-04-08T10:33:57.266Z,8.03
2023-04-08T10:37:22.625Z,8.06
2023-04-08T10:40:47.978Z,8.06
2023-04-08T10:44:13.374Z,8.03
2023-04-08T10:47:38.847Z,8
2023-04-08T10:51:04.242Z,8.04
2023-04-08T10:54:29.659Z,8.08
2023-04-08T10:57:57.038Z,8.06
2023-04-08T11:01:20.652Z,8.02
2023-04-08T11:04:46.044Z,7.9
2023-04-08T11:08:11.524Z,7.88
2023-04-08T11:11:36.943Z,7.82
2023-04-08T11:15:02.815Z,7.72
2023-04-08T11:18:28.231Z,7.65
2023-04-08T11:21:53.710Z,7.64
2023-04-08T11:25:19.270Z,7.66
2023-04-08T11:28:44.659Z,7.67
2023-04-08T11:32:10.125Z,7.63
2023-04-08T11:35:35.658Z,7.63
2023-04-08T11:39:01.104Z,7.67
2023-04-08T11:42:26.698Z,7.72
2023-04-08T11:45:52.161Z,7.84
2023-04-08T11:49:17.708Z,7.92
2023-04-08T11:52:43.202Z,7.96
2023-04-08T11:56:08.759Z,7.96
2023-04-08T11:59:34.335Z,8.06
2023-04-08T12:02:59.933Z,8.19
2023-04-08T12:06:25.360Z,8.32
2023-04-08T12:09:50.734Z,8.4
2023-04-08T12:13:16.279Z,8.46
2023-04-08T12:16:41.777Z,8.48
2023-04-08T12:20:07.738Z,8.52
2023-04-08T12:23:33.049Z,8.52
2023-04-08T12:26:58.323Z,8.54
2023-04-08T12:30:23.663Z,8.49
2023-04-08T12:33:49.194Z,8.44
2023-04-08T12:37:14.293Z,8.41
2023-04-08T12:40:39.615Z,8.42
2023-04-08T12:44:04.939Z,8.43
2023-04-08T12:47:30.331Z,8.43
2023-04-08T12:50:55.700Z,8.45
2023-04-08T12:54:21.015Z,8.43
2023-04-08T12:57:46.324Z,8.41
2023-04-08T13:01:11.637Z,8.43
2023-04-08T13:04:36.948Z,8.46
2023-04-08T13:08:02.303Z,8.49
2023-04-08T13:11:27.640Z,8.47
2023-04-08T13:14:52.981Z,8.45
2023-04-08T13:18:18.370Z,8.48
2023-04-08T13:21:45.059Z,8.53
2023-04-08T13:25:09.194Z,8.66
2023-04-08T13:28:38.761Z,8.76
2023-04-08T13:32:00.013Z,8.84
2023-04-08T13:35:25.407Z,8.89
2023-04-08T13:38:51.045Z,8.93
2023-04-08T13:42:16.315Z,8.95
2023-04-08T13:45:41.727Z,8.97
2023-04-08T13:49:07.070Z,8.97
2023-04-08T13:52:32.448Z,9
2023-04-08T13:55:57.793Z,8.92
2023-04-08T13:59:23.220Z,8.86
2023-04-08T14:02:48.599Z,8.86
2023-04-08T14:06:13.917Z,8.85
2023-04-08T14:09:39.308Z,8.82
2023-04-08T14:13:04.799Z,8.81
2023-04-08T14:16:30.228Z,8.78
2023-04-08T14:19:55.622Z,8.76
2023-04-08T14:23:21.013Z,8.74
2023-04-08T14:26:46.453Z,8.74
2023-04-08T14:30:11.855Z,8.78
2023-04-08T14:33:37.305Z,8.83
2023-04-08T14:37:02.758Z,8.88
2023-04-08T14:40:28.380Z,8.87
2023-04-08T14:43:53.954Z,8.86
2023-04-08T14:47:19.589Z,8.8
2023-04-08T14:50:45.175Z,8.75
2023-04-08T14:54:10.798Z,8.74
2023-04-08T14:57:36.425Z,8.79
2023-04-08T15:01:02.239Z,8.82
2023-04-08T15:04:27.747Z,8.86
2023-04-08T15:40:29.600Z,7.09
2023-04-08T15:43:54.903Z,8.04
2023-04-08T15:47:20.260Z,8.25
2023-04-08T15:50:45.573Z,8.43
2023-04-08T15:54:10.878Z,8.55
2023-04-08T15:57:36.159Z,8.64
2023-04-08T16:01:01.432Z,8.7
2023-04-08T16:04:26.771Z,8.8
2023-04-08T16:07:52.069Z,8.84
2023-04-08T16:11:17.423Z,8.85
2023-04-08T16:14:42.876Z,8.88
2023-04-08T16:18:08.238Z,8.92
2023-04-08T16:21:33.520Z,8.98
2023-04-08T16:24:58.792Z,8.98
2023-04-08T16:28:24.084Z,8.98
2023-04-08T16:31:49.552Z,8.99
2023-04-08T16:35:14.671Z,8.97
2023-04-08T16:38:39.946Z,9
2023-04-08T16:42:05.241Z,9.04
2023-04-08T16:45:30.676Z,9.07
2023-04-08T16:48:55.874Z,9.07
2023-04-08T16:52:21.173Z,9.06
2023-04-08T16:55:46.571Z,9.02
2023-04-08T16:59:17.058Z,9.01
2023-04-08T17:02:45.609Z,9.03
2023-04-08T17:06:12.634Z,9.01
2023-04-08T17:09:39.426Z,9.01
2023-04-08T17:13:06.297Z,9.01
2023-04-08T17:16:32.740Z,8.99
2023-04-08T17:19:58.582Z,9.01
2023-04-08T17:23:24.065Z,9.01
2023-04-08T17:26:49.435Z,9.05
2023-04-08T17:30:14.825Z,9.03
2023-04-08T17:33:40.257Z,9.02
2023-04-08T17:37:05.716Z,9
2023-04-08T17:40:31.178Z,8.97
2023-04-08T17:43:56.551Z,8.94
2023-04-08T17:47:21.977Z,8.92
2023-04-08T17:50:47.527Z,8.93
2023-04-08T17:54:12.961Z,8.95
2023-04-08T17:57:38.436Z,8.98
2023-04-08T18:01:03.856Z,9.03
2023-04-08T18:04:30.537Z,9.05
2023-04-08T18:07:56.996Z,9.07
2023-04-08T18:11:33.468Z,9.09
2023-04-08T18:14:58.864Z,9.05
2023-04-08T18:18:24.137Z,8.99
2023-04-08T18:21:49.412Z,8.95
2023-04-08T18:25:14.675Z,8.94
2023-04-08T18:28:39.925Z,8.95
2023-04-08T18:32:05.304Z,8.96
2023-04-08T18:35:30.430Z,8.97
2023-04-08T18:38:55.720Z,9.01
2023-04-08T18:42:20.925Z,9.01
2023-04-08T18:45:46.245Z,9.02
2023-04-08T18:49:11.814Z,9.07
2023-04-08T18:52:37.008Z,9.13
2023-04-08T18:56:02.809Z,9.17
2023-04-08T18:59:28.001Z,9.15
2023-04-08T19:02:53.255Z,9.03
2023-04-08T19:06:18.444Z,8.95
2023-04-08T19:09:43.619Z,8.91
2023-04-08T19:13:08.873Z,8.91
2023-04-08T19:16:34.070Z,8.93
2023-04-08T19:19:59.306Z,8.91
2023-04-08T19:23:24.595Z,8.82
2023-04-08T19:26:49.779Z,8.76
2023-04-08T19:30:15.008Z,8.73
2023-04-08T19:33:40.237Z,8.7
2023-04-08T19:37:05.516Z,8.69
2023-04-08T19:40:30.755Z,8.67
2023-04-08T19:43:55.961Z,8.68
2023-04-08T19:47:21.183Z,8.69
2023-04-08T19:50:46.384Z,8.72
2023-04-08T19:54:11.600Z,8.73
2023-04-08T19:57:36.850Z,8.71
2023-04-08T20:01:02.021Z,8.68
2023-04-08T20:04:27.389Z,8.6
2023-04-08T20:07:52.691Z,8.56
2023-04-08T20:11:18.019Z,8.54
2023-04-08T20:14:43.403Z,8.49
2023-04-08T20:18:08.727Z,8.44
2023-04-08T20:21:34.057Z,8.41
2023-04-08T20:24:59.359Z,8.4
2023-04-08T20:28:24.667Z,8.4
2023-04-08T20:31:50.009Z,8.39
2023-04-08T20:35:15.245Z,8.4
2023-04-08T20:38:40.533Z,8.44
2023-04-08T20:42:05.797Z,8.49
2023-04-08T20:45:31.052Z,8.51
2023-04-08T20:48:56.376Z,8.52
2023-04-08T20:52:21.610Z,8.55
2023-04-08T20:55:46.854Z,8.65
2023-04-08T20:59:12.097Z,8.75
2023-04-08T21:02:37.484Z,8.8
2023-04-08T21:06:02.683Z,8.84
2023-04-08T21:09:27.904Z,8.92
2023-04-08T21:12:53.230Z,8.94
2023-04-08T21:16:18.530Z,8.97
2023-04-08T21:19:43.750Z,9.03
2023-04-08T21:23:09.015Z,9.08
2023-04-08T21:26:34.250Z,9.08
2023-04-08T21:29:59.497Z,9.08
2023-04-08T21:33:24.755Z,9.1
2023-04-08T21:36:50.054Z,9.1
2023-04-08T21:40:15.334Z,9.1
2023-04-08T21:43:40.553Z,9.08
2023-04-08T21:47:05.809Z,9.12
2023-04-08T21:50:31.060Z,9.15
2023-04-08T21:53:56.323Z,9.19
2023-04-08T21:57:21.617Z,9.24
2023-04-08T22:00:46.911Z,9.22
2023-04-08T22:04:12.223Z,9.18
2023-04-08T22:07:37.407Z,9.15
2023-04-08T22:11:02.667Z,9.12
2023-04-08T22:14:27.949Z,9.13
2023-04-08T22:17:53.360Z,9.11
2023-04-08T22:21:18.479Z,9.06
2023-04-08T22:24:43.738Z,9.07
2023-04-08T22:28:09.019Z,9.07
2023-04-08T22:31:34.278Z,9.07
2023-04-08T22:34:59.475Z,9.07
2023-04-08T22:38:24.716Z,9.08
2023-04-08T22:41:49.961Z,9.09
2023-04-08T22:45:15.216Z,9.08
2023-04-08T22:48:40.877Z,9.03
2023-04-08T22:52:05.730Z,9
2023-04-08T22:55:30.948Z,8.99
2023-04-08T22:58:56.169Z,8.99
2023-04-08T23:02:21.630Z,8.99
2023-04-08T23:05:46.741Z,8.99
2023-04-08T23:09:11.977Z,9
2023-04-08T23:12:37.264Z,9.01
2023-04-08T23:16:02.517Z,8.97
2023-04-08T23:19:27.739Z,8.95
2023-04-08T23:22:53.011Z,8.95
2023-04-08T23:26:18.232Z,8.93
2023-04-08T23:29:43.479Z,8.89
2023-04-08T23:33:08.721Z,8.89
2023-04-08T23:36:33.970Z,8.9
2023-04-08T23:39:59.208Z,8.9
2023-04-08T23:43:24.429Z,8.85
2023-04-08T23:46:49.744Z,8.85
2023-04-08T23:50:14.901Z,8.86
2023-04-08T23:53:40.157Z,8.87
2023-04-08T23:57:05.450Z,8.82
